Time;durP1;ratioP1;P1;durP2;ratioP2;P2;SDS_P1;SDS_P2;PMS_P1;PMS_P2;Temp;Humidity;BMP_temperature;BMP_pressure;BME280_temperature;BME280_humidity;BME280_pressure;Samples;Min_cycle;Max_cycle;Signal;HPM_P1;HPM_P2
2023/07/17 00:01:29;;;;;;;15.23;10.27;;;16.50;99.90;;;;;;5068605;28;20200;-86
2023/07/17 00:04:04;;;;;;;17.30;11.48;;;16.50;99.90;;;;;;5064029;28;20283;-86
2023/07/17 00:06:38;;;;;;;19.00;11.38;;;16.40;99.90;;;;;;5051179;28;20184;-85
2023/07/17 00:09:09;;;;;;;14.85;10.75;;;16.40;99.90;;;;;;5070537;28;20191;-84
2023/07/17 00:11:41;;;;;;;20.25;11.35;;;16.50;99.90;;;;;;5074225;28;20196;-85
2023/07/17 00:14:14;;;;;;;15.02;10.40;;;16.60;99.90;;;;;;5074269;28;20188;-85
2023/07/17 00:16:45;;;;;;;15.85;9.82;;;16.80;99.90;;;;;;5074679;28;20241;-84
2023/07/17 00:19:16;;;;;;;19.80;12.35;;;17.10;99.90;;;;;;5074441;28;20190;-85
2023/07/17 00:21:47;;;;;;;17.40;12.38;;;17.10;99.90;;;;;;5075202;28;20200;-86
2023/07/17 00:24:17;;;;;;;20.08;11.93;;;17.00;99.90;;;;;;5073737;28;20278;-85
2023/07/17 00:26:48;;;;;;;17.05;10.98;;;17.00;99.90;;;;;;5073944;28;20206;-85
2023/07/17 00:29:30;;;;;;;17.35;10.55;;;17.00;99.90;;;;;;5074026;28;20202;-86
2023/07/17 00:32:01;;;;;;;16.70;10.35;;;17.10;99.90;;;;;;5073671;28;20192;-84
2023/07/17 00:34:32;;;;;;;15.15;10.93;;;17.20;99.90;;;;;;5073721;28;20200;-86
2023/07/17 00:37:03;;;;;;;16.20;11.20;;;17.30;99.90;;;;;;5074352;28;20184;-85
2023/07/17 00:39:35;;;;;;;17.48;11.18;;;17.30;99.90;;;;;;5073640;28;20207;-85
2023/07/17 00:42:06;;;;;;;14.88;9.93;;;17.40;99.90;;;;;;5073982;28;20220;-87
2023/07/17 00:44:39;;;;;;;16.98;11.23;;;17.40;99.90;;;;;;5074115;28;20199;-86
2023/07/17 00:47:11;;;;;;;16.60;10.23;;;17.60;99.90;;;;;;5073692;28;20188;-86
2023/07/17 00:49:43;;;;;;;19.52;11.05;;;17.60;99.90;;;;;;5053124;28;20232;-86
2023/07/17 00:52:14;;;;;;;15.65;9.27;;;17.70;99.90;;;;;;5066666;28;20196;-85
2023/07/17 00:54:47;;;;;;;14.98;8.38;;;17.70;99.90;;;;;;5074094;28;20204;-85
2023/07/17 00:57:20;;;;;;;15.55;7.30;;;17.70;99.90;;;;;;5072743;28;20200;-85
2023/07/17 00:59:54;;;;;;;17.27;7.63;;;17.80;99.90;;;;;;5073504;28;20234;-87
2023/07/17 01:02:26;;;;;;;10.82;7.50;;;17.70;99.90;;;;;;5073519;28;20194;-85
2023/07/17 01:04:57;;;;;;;12.00;7.25;;;17.80;99.90;;;;;;5074145;28;20275;-85
2023/07/17 01:07:28;;;;;;;12.63;6.43;;;17.80;99.90;;;;;;5073426;28;20194;-85
2023/07/17 01:10:00;;;;;;;18.17;7.60;;;17.90;99.90;;;;;;5073240;28;20192;-84
2023/07/17 01:12:32;;;;;;;12.60;7.90;;;17.90;99.90;;;;;;5074958;28;20218;-84
2023/07/17 01:15:06;;;;;;;11.50;7.45;;;17.90;99.90;;;;;;5065056;28;20192;-85
2023/07/17 01:17:37;;;;;;;11.48;6.60;;;17.90;99.90;;;;;;5058308;28;20245;-86
2023/07/17 01:20:10;;;;;;;9.00;5.80;;;17.80;99.90;;;;;;5062578;28;20212;-86
2023/07/17 01:22:54;;;;;;;13.38;5.63;;;17.70;99.90;;;;;;5065214;28;20201;-86
2023/07/17 01:25:25;;;;;;;7.57;5.00;;;17.70;99.90;;;;;;5062859;28;20331;-87
2023/07/17 01:27:57;;;;;;;9.60;5.40;;;17.80;99.90;;;;;;5061950;28;20193;-86
2023/07/17 01:30:31;;;;;;;10.63;5.00;;;17.80;99.90;;;;;;5059387;28;20204;-87
2023/07/17 01:33:02;;;;;;;9.25;4.43;;;18.00;99.90;;;;;;5060540;28;20686;-84
2023/07/17 01:35:34;;;;;;;9.27;3.95;;;18.10;99.90;;;;;;5038062;28;20193;-85
2023/07/17 01:38:08;;;;;;;6.45;3.15;;;18.20;99.90;;;;;;5058560;28;20229;-85
2023/07/17 01:40:39;;;;;;;10.32;3.85;;;18.30;99.90;;;;;;5059118;28;20277;-87
2023/07/17 01:43:10;;;;;;;12.57;4.70;;;18.30;99.90;;;;;;5061602;28;20235;-88
2023/07/17 01:45:42;;;;;;;10.82;4.47;;;18.30;99.90;;;;;;5065016;28;20211;-88
2023/07/17 01:48:17;;;;;;;9.65;4.22;;;18.30;99.90;;;;;;5056936;28;20234;-86
2023/07/17 01:50:50;;;;;;;10.82;4.20;;;18.30;99.90;;;;;;5056419;28;20200;-84
2023/07/17 01:53:26;;;;;;;10.02;4.30;;;18.40;99.90;;;;;;5056443;28;20207;-85
2023/07/17 01:56:00;;;;;;;10.15;3.47;;;18.40;99.90;;;;;;5057398;28;20212;-85
2023/07/17 01:58:33;;;;;;;8.20;3.67;;;18.40;99.90;;;;;;5059124;28;20624;-85
2023/07/17 02:01:09;;;;;;;10.35;3.95;;;18.50;99.90;;;;;;5051667;28;20208;-86
2023/07/17 02:03:41;;;;;;;6.38;3.78;;;18.50;99.90;;;;;;5060744;28;20204;-87
2023/07/17 02:06:13;;;;;;;9.93;3.67;;;18.50;99.90;;;;;;5056608;28;20202;-86
2023/07/17 02:08:48;;;;;;;11.25;3.67;;;18.50;99.90;;;;;;5069235;28;20207;-87
2023/07/17 02:11:19;;;;;;;8.15;3.45;;;18.50;99.90;;;;;;5072435;28;20587;-84
2023/07/17 02:13:50;;;;;;;10.10;3.50;;;18.40;99.90;;;;;;5073263;28;20208;-86
2023/07/17 02:16:22;;;;;;;7.78;3.53;;;18.40;99.90;;;;;;5072291;28;20187;-87
2023/07/17 02:18:55;;;;;;;7.40;3.75;;;18.30;99.90;;;;;;5059989;28;20215;-86
2023/07/17 02:21:26;;;;;;;8.70;3.75;;;18.40;99.90;;;;;;5069075;28;20594;-84
2023/07/17 02:24:02;;;;;;;10.23;3.60;;;18.40;99.90;;;;;;5071725;28;20227;-86
2023/07/17 02:26:36;;;;;;;8.45;3.35;;;18.30;99.90;;;;;;5065067;28;20249;-86
2023/07/17 02:29:07;;;;;;;7.80;3.83;;;18.30;99.90;;;;;;5072436;28;20190;-86
2023/07/17 02:31:39;;;;;;;6.35;3.63;;;18.30;99.90;;;;;;5073061;28;20207;-86
2023/07/17 02:34:13;;;;;;;6.75;3.55;;;18.20;99.90;;;;;;5073712;28;20185;-87
2023/07/17 02:36:46;;;;;;;9.05;3.13;;;18.10;99.90;;;;;;5073709;28;20266;-87
2023/07/17 02:39:23;;;;;;;6.13;3.10;;;18.10;99.90;;;;;;5073481;28;20180;-88
2023/07/17 02:41:54;;;;;;;9.18;3.42;;;18.10;99.90;;;;;;5076201;28;20285;-87
2023/07/17 02:44:26;;;;;;;7.38;3.42;;;18.10;99.90;;;;;;5081167;28;20219;-87
2023/07/17 02:46:57;;;;;;;7.97;3.03;;;18.10;99.90;;;;;;5077624;28;20195;-87
2023/07/17 02:49:29;;;;;;;5.05;3.13;;;18.10;99.90;;;;;;5071276;28;20251;-87
2023/07/17 02:52:00;;;;;;;9.07;3.28;;;18.10;99.90;;;;;;5072281;28;20188;-85
2023/07/17 02:54:34;;;;;;;6.57;3.20;;;18.10;99.90;;;;;;5065570;28;20199;-87
2023/07/17 02:57:06;;;;;;;7.68;3.80;;;18.00;99.90;;;;;;5055842;28;20224;-88
2023/07/17 02:59:40;;;;;;;12.35;3.92;;;18.00;99.90;;;;;;5070623;28;20200;-88
2023/07/17 03:02:11;;;;;;;8.05;3.40;;;18.10;99.90;;;;;;5072987;28;20257;-86
2023/07/17 03:04:44;;;;;;;7.35;3.63;;;18.10;99.90;;;;;;5071574;28;20671;-86
2023/07/17 03:07:15;;;;;;;10.05;3.25;;;18.10;99.90;;;;;;5071802;28;20512;-86
2023/07/17 03:09:50;;;;;;;8.57;3.50;;;18.10;99.90;;;;;;5059215;28;20198;-86
2023/07/17 03:12:21;;;;;;;9.73;3.50;;;18.10;99.90;;;;;;5051538;28;20220;-86
2023/07/17 03:14:52;;;;;;;6.20;2.83;;;18.10;99.90;;;;;;5054057;28;20200;-85
2023/07/17 03:17:23;;;;;;;5.80;2.65;;;18.10;99.90;;;;;;5071237;28;20216;-86
2023/07/17 03:19:57;;;;;;;6.60;2.47;;;18.20;99.90;;;;;;5071873;28;20206;-87
2023/07/17 03:22:28;;;;;;;5.28;2.42;;;18.20;99.90;;;;;;5072976;28;20292;-89
2023/07/17 03:25:02;;;;;;;6.45;2.25;;;18.20;99.90;;;;;;5072131;28;20191;-85
2023/07/17 03:27:33;;;;;;;5.28;2.17;;;18.20;99.90;;;;;;5058951;28;20256;-86
2023/07/17 03:30:04;;;;;;;4.47;2.05;;;18.20;99.90;;;;;;5050971;28;20197;-86
2023/07/17 03:32:36;;;;;;;5.85;2.15;;;18.30;99.90;;;;;;5055261;28;20201;-86
2023/07/17 03:35:07;;;;;;;4.45;2.05;;;18.30;99.90;;;;;;5050870;28;20189;-87
2023/07/17 03:37:40;;;;;;;7.55;2.28;;;18.40;99.90;;;;;;5051255;28;20185;-86
2023/07/17 03:40:15;;;;;;;5.25;1.90;;;18.30;99.90;;;;;;5061036;28;20532;-86
2023/07/17 03:42:46;;;;;;;5.40;2.17;;;18.40;99.90;;;;;;5072202;28;20206;-84
2023/07/17 03:45:18;;;;;;;7.78;1.75;;;18.60;99.90;;;;;;5076218;28;20200;-86
2023/07/17 03:47:50;;;;;;;4.63;1.38;;;18.60;99.90;;;;;;5076039;28;20311;-87
2023/07/17 03:50:21;;;;;;;4.93;1.67;;;18.70;99.90;;;;;;5074081;28;20288;-87
2023/07/17 03:52:56;;;;;;;6.18;1.70;;;18.70;99.90;;;;;;5072781;28;20234;-87
2023/07/17 03:55:30;;;;;;;7.88;2.17;;;18.90;99.90;;;;;;5075070;28;20531;-90
2023/07/17 03:58:03;;;;;;;5.90;1.98;;;19.00;99.90;;;;;;5074341;28;20192;-87
2023/07/17 04:00:34;;;;;;;4.85;1.90;;;19.00;99.90;;;;;;5075041;28;20312;-86
2023/07/17 04:03:05;;;;;;;4.32;1.58;;;19.00;99.90;;;;;;5077455;28;20230;-87
2023/07/17 04:05:37;;;;;;;5.25;1.77;;;19.00;99.90;;;;;;5075028;28;20203;-88
2023/07/17 04:08:10;;;;;;;4.00;1.90;;;18.90;99.90;;;;;;5072195;28;20200;-88
2023/07/17 04:10:47;;;;;;;7.28;2.30;;;18.80;99.90;;;;;;5069798;28;20238;-88
2023/07/17 04:13:19;;;;;;;5.78;2.00;;;18.80;99.90;;;;;;5056842;28;20228;-88
2023/07/17 04:15:54;;;;;;;5.97;2.22;;;18.80;99.90;;;;;;5056768;28;20185;-87
2023/07/17 04:18:26;;;;;;;8.38;2.63;;;18.80;99.90;;;;;;5055817;28;20671;-87
2023/07/17 04:20:58;;;;;;;6.90;2.78;;;18.70;99.90;;;;;;5055104;28;20696;-86
2023/07/17 04:23:29;;;;;;;8.60;2.70;;;18.80;99.90;;;;;;5062095;28;20247;-86
2023/07/17 04:26:05;;;;;;;5.03;2.13;;;18.80;99.90;;;;;;5076747;28;20210;-87
2023/07/17 04:28:37;;;;;;;7.78;2.88;;;18.80;99.90;;;;;;5073265;28;20227;-87
2023/07/17 04:31:09;;;;;;;6.18;2.40;;;18.80;99.90;;;;;;5055207;28;20200;-87
2023/07/17 04:33:40;;;;;;;7.85;2.85;;;18.80;99.90;;;;;;5054659;28;20283;-87
2023/07/17 04:36:12;;;;;;;5.40;2.15;;;18.80;99.90;;;;;;5068592;28;20567;-87
2023/07/17 04:38:43;;;;;;;7.90;2.00;;;18.70;99.90;;;;;;5057607;28;20537;-87
2023/07/17 04:41:17;;;;;;;6.88;2.25;;;18.70;99.90;;;;;;5066501;28;20220;-87
2023/07/17 04:43:53;;;;;;;5.90;1.90;;;18.80;99.90;;;;;;5067572;28;20606;-87
2023/07/17 04:46:26;;;;;;;5.68;2.08;;;18.70;99.90;;;;;;5078265;28;20195;-87
2023/07/17 04:48:57;;;;;;;6.97;2.13;;;18.70;99.90;;;;;;5076116;28;20293;-86
2023/07/17 04:51:28;;;;;;;5.07;1.40;;;18.80;99.90;;;;;;5075998;28;20252;-87
2023/07/17 04:54:00;;;;;;;5.18;1.65;;;18.80;99.90;;;;;;5076662;28;20204;-88
2023/07/17 04:56:34;;;;;;;8.05;1.70;;;18.90;99.90;;;;;;5076058;28;20282;-89
2023/07/17 04:59:05;;;;;;;4.07;1.63;;;18.90;99.90;;;;;;5076356;28;20274;-88
2023/07/17 05:01:37;;;;;;;7.53;1.98;;;18.90;99.90;;;;;;5055842;28;20610;-87
2023/07/17 05:04:09;;;;;;;8.45;1.92;;;19.00;99.90;;;;;;5070523;28;20220;-89
2023/07/17 05:06:41;;;;;;;4.18;1.50;;;19.00;99.90;;;;;;5088199;28;20195;-88
2023/07/17 05:09:13;;;;;;;5.10;1.45;;;19.00;99.90;;;;;;5084141;28;20222;-89
2023/07/17 05:11:48;;;;;;;5.50;1.52;;;19.00;99.90;;;;;;5082305;28;20323;-88
2023/07/17 05:14:22;;;;;;;4.03;1.13;;;18.90;99.90;;;;;;5093092;28;20201;-88
2023/07/17 05:16:57;;;;;;;6.60;1.75;;;18.80;99.90;;;;;;5090643;28;20200;-88
2023/07/17 05:19:31;;;;;;;6.80;1.65;;;18.80;99.90;;;;;;5068808;28;20694;-87
2023/07/17 05:22:03;;;;;;;4.43;1.30;;;18.70;99.90;;;;;;5084632;28;20744;-87
2023/07/17 05:24:37;;;;;;;6.15;1.65;;;18.70;99.90;;;;;;5081289;28;20203;-87
2023/07/17 05:27:16;;;;;;;5.63;1.33;;;18.60;99.90;;;;;;5079214;28;20278;-87
2023/07/17 05:29:47;;;;;;;7.07;1.35;;;18.70;99.90;;;;;;5063219;28;20287;-87
2023/07/17 05:32:18;;;;;;;4.30;1.60;;;18.80;99.90;;;;;;5053982;28;20224;-87
2023/07/17 05:34:50;;;;;;;4.82;1.33;;;18.80;99.90;;;;;;5054179;28;20659;-87
2023/07/17 05:37:22;;;;;;;5.32;1.60;;;18.80;99.90;;;;;;5074575;28;20222;-88
2023/07/17 05:39:55;;;;;;;7.00;1.83;;;18.80;99.90;;;;;;5078323;28;20200;-89
2023/07/17 05:42:28;;;;;;;7.75;1.73;;;18.90;99.90;;;;;;5078595;28;20243;-87
2023/07/17 05:45:00;;;;;;;4.30;1.50;;;18.90;99.90;;;;;;5075732;28;20199;-90
2023/07/17 05:47:33;;;;;;;6.20;1.65;;;18.90;99.90;;;;;;5076591;28;20200;-86
2023/07/17 05:50:04;;;;;;;6.78;1.40;;;18.90;99.90;;;;;;5075010;28;20663;-90
2023/07/17 05:52:35;;;;;;;6.28;1.38;;;18.90;99.90;;;;;;5073278;28;20240;-88
2023/07/17 05:55:08;;;;;;;6.68;1.77;;;18.90;99.90;;;;;;5056586;28;20192;-88
2023/07/17 05:57:41;;;;;;;7.60;1.85;;;18.90;99.90;;;;;;5063337;28;20196;-89
2023/07/17 06:00:14;;;;;;;5.35;1.52;;;18.90;99.90;;;;;;5074111;28;20283;-88
2023/07/17 06:02:50;;;;;;;6.60;1.48;;;18.90;99.90;;;;;;5073587;28;20302;-88
2023/07/17 06:05:21;;;;;;;4.43;1.42;;;19.00;99.90;;;;;;5074261;28;20218;-87
2023/07/17 06:07:53;;;;;;;6.18;1.65;;;18.90;99.90;;;;;;5073505;28;20265;-88
2023/07/17 06:10:25;;;;;;;5.88;1.60;;;18.90;99.90;;;;;;5069641;28;20197;-86
2023/07/17 06:12:59;;;;;;;5.95;1.60;;;18.90;99.90;;;;;;5071963;28;20605;-89
2023/07/17 06:15:32;;;;;;;6.20;1.95;;;18.90;99.90;;;;;;5076689;28;20288;-89
2023/07/17 06:18:04;;;;;;;5.60;1.70;;;18.90;99.90;;;;;;5078912;28;20194;-90
2023/07/17 06:20:35;;;;;;;7.47;1.65;;;18.90;99.90;;;;;;5076414;28;20224;-89
2023/07/17 06:23:10;;;;;;;5.63;1.75;;;18.90;99.90;;;;;;5076878;28;20339;-89
2023/07/17 06:25:42;;;;;;;4.05;1.45;;;18.90;99.90;;;;;;5070872;28;20199;-88
2023/07/17 06:28:17;;;;;;;8.60;1.50;;;19.00;99.90;;;;;;5072495;28;20287;-89
2023/07/17 06:30:51;;;;;;;5.25;1.58;;;19.00;99.90;;;;;;5075075;28;20225;-89
2023/07/17 06:33:25;;;;;;;3.92;1.58;;;19.00;99.90;;;;;;5075602;28;20199;-88
2023/07/17 06:35:58;;;;;;;4.75;1.33;;;19.00;99.90;;;;;;5058372;28;20195;-90
2023/07/17 06:38:29;;;;;;;6.95;1.40;;;19.00;99.90;;;;;;5074262;28;20200;-90
2023/07/17 06:41:03;;;;;;;4.35;1.20;;;18.90;99.90;;;;;;5069415;28;20199;-88
2023/07/17 06:43:38;;;;;;;8.43;1.70;;;18.80;99.90;;;;;;5058129;28;20231;-87
2023/07/17 06:46:09;;;;;;;5.13;1.48;;;18.80;99.90;;;;;;5057198;28;20195;-88
2023/07/17 06:48:41;;;;;;;3.38;1.30;;;18.70;99.90;;;;;;5059524;28;20227;-90
2023/07/17 06:51:15;;;;;;;4.28;1.40;;;18.60;99.90;;;;;;5080506;28;20231;-90
2023/07/17 06:53:47;;;;;;;5.88;1.45;;;18.50;99.90;;;;;;5057983;28;20199;-90
2023/07/17 06:56:18;;;;;;;4.55;1.40;;;18.50;99.90;;;;;;5076726;28;20192;-90
2023/07/17 06:58:54;;;;;;;5.20;1.48;;;18.40;99.90;;;;;;5073830;28;20255;-88
2023/07/17 07:01:25;;;;;;;3.25;1.15;;;18.30;99.90;;;;;;5064688;28;20224;-91
2023/07/17 07:03:58;;;;;;;3.90;1.50;;;18.20;99.90;;;;;;5053958;28;20227;-89
2023/07/17 07:06:29;;;;;;;4.65;1.63;;;18.20;99.90;;;;;;5052727;28;20235;-88
2023/07/17 07:09:00;;;;;;;4.03;1.70;;;18.20;99.90;;;;;;5052234;28;20200;-86
2023/07/17 07:11:38;;;;;;;8.75;2.78;;;18.10;99.90;;;;;;5051464;28;20188;-87
2023/07/17 07:14:12;;;;;;;10.90;5.60;;;18.10;99.90;;;;;;5063547;28;20630;-86
2023/07/17 07:16:43;;;;;;;19.05;10.60;;;18.00;99.90;;;;;;5071923;28;20235;-87
2023/07/17 07:19:15;;;;;;;18.55;10.02;;;18.00;99.90;;;;;;5075563;28;20211;-85
2023/07/17 07:21:46;;;;;;;13.07;7.95;;;17.90;99.90;;;;;;5064541;28;20303;-87
2023/07/17 07:24:18;;;;;;;13.00;6.30;;;17.90;99.90;;;;;;5075039;28;20199;-87
2023/07/17 07:26:53;;;;;;;9.23;5.45;;;17.80;99.90;;;;;;5075664;28;20619;-87
2023/07/17 07:29:37;;;;;;;11.50;3.65;;;17.80;99.90;;;;;;5075323;28;20199;-86
2023/07/17 07:32:09;;;;;;;8.65;2.40;;;17.70;99.90;;;;;;5069685;28;20227;-86
2023/07/17 07:34:40;;;;;;;5.65;2.08;;;17.70;99.90;;;;;;5074728;28;20196;-86
2023/07/17 07:37:11;;;;;;;8.57;2.47;;;17.60;99.90;;;;;;5074992;28;20718;-86
2023/07/17 07:39:43;;;;;;;7.82;2.47;;;17.60;99.90;;;;;;5073188;28;20204;-86
2023/07/17 07:42:16;;;;;;;5.47;1.92;;;17.50;99.90;;;;;;5057561;28;20240;-86
2023/07/17 07:44:51;;;;;;;4.80;2.08;;;17.50;99.90;;;;;;5047911;28;20200;-87
2023/07/17 07:47:22;;;;;;;6.97;2.30;;;17.50;99.90;;;;;;5073525;28;20225;-87
2023/07/17 07:49:54;;;;;;;6.65;2.13;;;17.50;99.90;;;;;;5075000;28;20222;-86
2023/07/17 07:52:25;;;;;;;7.18;2.30;;;17.50;99.90;;;;;;5060892;28;20288;-87
2023/07/17 07:54:57;;;;;;;7.72;2.38;;;17.50;99.90;;;;;;5061013;28;20575;-87
2023/07/17 07:57:28;;;;;;;6.28;2.03;;;17.50;99.90;;;;;;5074367;28;20204;-86
2023/07/17 08:00:01;;;;;;;6.38;2.40;;;17.40;99.90;;;;;;5073964;28;20192;-86
2023/07/17 08:02:33;;;;;;;7.07;2.38;;;17.40;99.90;;;;;;5074059;28;20216;-86
2023/07/17 08:05:05;;;;;;;7.13;2.17;;;17.40;99.90;;;;;;5073919;28;20191;-86
2023/07/17 08:07:37;;;;;;;5.72;2.17;;;17.40;99.90;;;;;;5073448;28;20563;-86
2023/07/17 08:10:09;;;;;;;4.25;1.85;;;17.40;99.90;;;;;;5073901;28;20279;-87
2023/07/17 08:12:40;;;;;;;6.95;1.70;;;17.40;99.90;;;;;;5073984;28;20590;-86
2023/07/17 08:15:14;;;;;;;6.82;1.90;;;17.40;99.90;;;;;;5074103;28;20553;-86
2023/07/17 08:17:45;;;;;;;8.20;1.88;;;17.40;99.90;;;;;;5073765;28;20291;-86
2023/07/17 08:20:17;;;;;;;9.75;1.95;;;17.30;99.90;;;;;;5073678;28;20547;-86
2023/07/17 08:22:55;;;;;;;6.45;2.22;;;17.30;99.90;;;;;;5061053;28;20228;-87
2023/07/17 08:25:26;;;;;;;5.50;2.22;;;17.30;99.90;;;;;;5074562;28;20195;-86
2023/07/17 08:27:58;;;;;;;5.72;2.35;;;17.30;99.90;;;;;;5072543;28;20292;-86
2023/07/17 08:30:31;;;;;;;6.93;2.40;;;17.30;99.90;;;;;;5055825;28;20208;-86
2023/07/17 08:33:02;;;;;;;8.55;2.78;;;17.30;99.90;;;;;;5058530;28;20271;-88
2023/07/17 08:35:34;;;;;;;9.63;2.78;;;17.20;99.90;;;;;;5073434;28;20305;-87
2023/07/17 08:38:06;;;;;;;6.43;1.90;;;17.20;99.90;;;;;;5073287;28;20262;-88
2023/07/17 08:40:41;;;;;;;6.88;2.10;;;17.20;99.90;;;;;;5063422;28;20228;-87
2023/07/17 08:43:12;;;;;;;7.32;2.47;;;17.20;99.90;;;;;;5054913;28;20269;-85
2023/07/17 08:45:47;;;;;;;43.63;28.92;;;17.10;99.90;;;;;;5070437;28;20222;-86
2023/07/17 08:48:22;;;;;;;45.67;31.85;;;17.10;99.90;;;;;;5048703;28;20253;-87
2023/07/17 08:50:55;;;;;;;74.85;47.45;;;17.10;99.90;;;;;;5048360;28;20228;-86
2023/07/17 08:53:26;;;;;;;130.75;80.68;;;17.10;99.90;;;;;;5056341;28;20204;-87
2023/07/17 08:55:59;;;;;;;78.80;51.38;;;17.10;99.90;;;;;;5044174;28;20288;-88
2023/07/17 08:58:31;;;;;;;55.95;38.35;;;17.10;99.90;;;;;;5033956;28;20712;-87
2023/07/17 09:01:05;;;;;;;48.25;33.83;;;17.00;99.90;;;;;;5033551;28;20192;-87
2023/07/17 09:03:38;;;;;;;39.40;28.65;;;17.00;99.90;;;;;;5033396;28;20209;-87
2023/07/17 09:06:09;;;;;;;54.15;43.83;;;17.00;99.90;;;;;;5034128;28;20193;-86
2023/07/17 09:08:40;;;;;;;56.17;44.80;;;17.00;99.90;;;;;;5038661;28;20231;-87
2023/07/17 09:11:12;;;;;;;29.75;22.92;;;17.00;99.90;;;;;;5049362;28;20221;-87
2023/07/17 09:13:44;;;;;;;23.55;15.98;;;17.00;99.90;;;;;;5050124;28;20205;-85
2023/07/17 09:16:22;;;;;;;16.75;9.88;;;17.00;99.90;;;;;;5053306;28;20249;-86
2023/07/17 09:18:54;;;;;;;13.90;9.65;;;17.00;99.90;;;;;;5048084;28;20247;-83
2023/07/17 09:21:26;;;;;;;10.32;7.30;;;17.00;99.90;;;;;;5032558;28;20193;-85
2023/07/17 09:23:58;;;;;;;12.95;7.70;;;16.90;99.90;;;;;;5033001;28;20235;-85
2023/07/17 09:26:30;;;;;;;9.88;6.30;;;16.90;99.90;;;;;;5049472;28;20682;-84
2023/07/17 09:29:01;;;;;;;11.10;5.60;;;16.90;99.90;;;;;;5037160;28;20208;-84
2023/07/17 09:31:36;;;;;;;11.63;4.85;;;16.90;99.90;;;;;;5050108;28;20189;-88
2023/07/17 09:34:15;;;;;;;10.35;4.22;;;16.90;99.90;;;;;;5050233;28;20215;-86
2023/07/17 09:36:46;;;;;;;7.65;3.92;;;16.90;99.90;;;;;;5051316;28;20189;-86
2023/07/17 09:39:18;;;;;;;7.75;3.85;;;16.80;99.90;;;;;;5052127;28;20219;-86
2023/07/17 09:41:49;;;;;;;7.18;3.42;;;16.80;99.90;;;;;;5051999;28;20656;-87
2023/07/17 09:44:21;;;;;;;9.02;3.55;;;16.80;99.90;;;;;;5052744;28;20220;-86
2023/07/17 09:46:54;;;;;;;8.43;3.20;;;16.80;99.90;;;;;;5051634;28;20196;-87
2023/07/17 09:49:26;;;;;;;8.45;4.03;;;16.80;99.90;;;;;;5048791;28;20605;-87
2023/07/17 09:51:59;;;;;;;9.20;3.35;;;16.80;99.90;;;;;;5052318;28;20185;-87
2023/07/17 09:54:36;;;;;;;9.63;3.92;;;16.80;99.90;;;;;;5041538;28;20572;-86
2023/07/17 09:57:11;;;;;;;8.73;4.20;;;16.70;99.90;;;;;;5072142;28;20200;-89
2023/07/17 09:59:45;;;;;;;9.43;4.82;;;16.70;99.90;;;;;;5064350;28;20207;-88
2023/07/17 10:02:22;;;;;;;11.48;5.13;;;16.70;99.90;;;;;;5070259;28;20673;-87
2023/07/17 10:04:56;;;;;;;7.60;4.97;;;16.60;99.90;;;;;;5072160;28;20192;-87
2023/07/17 10:07:32;;;;;;;8.93;4.50;;;16.60;99.90;;;;;;5075839;28;20558;-88
2023/07/17 10:10:09;;;;;;;7.40;3.50;;;16.50;99.90;;;;;;5062046;28;20195;-88
2023/07/17 10:12:41;;;;;;;6.53;3.17;;;16.60;99.90;;;;;;5052406;28;20584;-85
2023/07/17 10:15:14;;;;;;;9.07;3.10;;;16.50;99.90;;;;;;5052239;28;20261;-87
2023/07/17 10:17:57;;;;;;;10.43;3.42;;;16.50;99.90;;;;;;5064058;28;20202;-87
2023/07/17 10:20:28;;;;;;;8.05;3.03;;;16.50;99.90;;;;;;5071938;28;20203;-88
2023/07/17 10:23:00;;;;;;;7.53;2.80;;;16.50;99.90;;;;;;5080237;28;20214;-88
2023/07/17 10:25:32;;;;;;;5.97;2.38;;;16.50;99.90;;;;;;5075926;28;20655;-88
2023/07/17 10:28:04;;;;;;;7.18;2.42;;;16.50;99.90;;;;;;5067528;28;20189;-88
2023/07/17 10:30:37;;;;;;;8.38;2.85;;;16.50;99.90;;;;;;5070091;28;20189;-88
2023/07/17 10:33:15;;;;;;;9.68;3.25;;;16.40;99.90;;;;;;5095307;28;20204;-88
2023/07/17 10:35:53;;;;;;;6.90;3.00;;;16.50;99.90;;;;;;5091253;28;20206;-88
2023/07/17 10:38:29;;;;;;;10.85;3.30;;;16.40;99.90;;;;;;5083955;28;20219;-87
2023/07/17 10:41:07;;;;;;;9.50;2.70;;;16.40;99.90;;;;;;5096043;28;20200;-87
2023/07/17 10:43:39;;;;;;;8.80;2.80;;;16.40;99.90;;;;;;5092881;28;20223;-88
2023/07/17 10:46:14;;;;;;;8.05;2.58;;;16.40;99.90;;;;;;5095183;28;20180;-81
2023/07/17 10:48:47;;;;;;;7.22;2.60;;;16.40;99.90;;;;;;5090985;28;20290;-87
2023/07/17 10:51:18;;;;;;;7.05;2.35;;;16.40;99.90;;;;;;5058640;28;20209;-86
2023/07/17 10:53:50;;;;;;;7.82;2.70;;;16.40;99.90;;;;;;5081321;28;20199;-87
2023/07/17 10:56:21;;;;;;;3.50;2.03;;;16.30;99.90;;;;;;5086845;28;20626;-86
2023/07/17 10:58:54;;;;;;;8.98;2.20;;;16.30;99.90;;;;;;5076769;28;20230;-88
2023/07/17 11:01:25;;;;;;;7.57;2.10;;;16.30;99.90;;;;;;5075228;28;20688;-87
2023/07/17 11:03:59;;;;;;;8.45;2.22;;;16.30;99.90;;;;;;5062880;28;20226;-87
2023/07/17 11:06:31;;;;;;;7.32;2.67;;;16.30;99.90;;;;;;5054504;28;20196;-86
2023/07/17 11:09:04;;;;;;;5.82;2.05;;;16.30;99.90;;;;;;5062905;28;20195;-87
2023/07/17 11:11:37;;;;;;;6.70;2.47;;;16.30;99.90;;;;;;5073131;28;20238;-86
2023/07/17 11:14:08;;;;;;;9.85;2.90;;;16.30;99.90;;;;;;5072009;28;20230;-86
2023/07/17 11:16:42;;;;;;;7.45;2.60;;;16.30;99.90;;;;;;5072606;28;20196;-86
2023/07/17 11:19:17;;;;;;;9.68;2.92;;;16.30;99.90;;;;;;5065317;28;20623;-86
2023/07/17 11:21:52;;;;;;;6.60;2.88;;;16.20;99.90;;;;;;5071777;28;20199;-86
2023/07/17 11:24:23;;;;;;;8.75;2.97;;;16.20;99.90;;;;;;5072951;28;20215;-87
2023/07/17 11:26:55;;;;;;;6.60;3.00;;;16.20;99.90;;;;;;5058643;28;20196;-88
2023/07/17 11:29:26;;;;;;;5.70;2.83;;;16.20;99.90;;;;;;5062974;28;20209;-88
2023/07/17 11:32:01;;;;;;;7.43;2.60;;;16.20;99.90;;;;;;5063213;28;20240;-88
2023/07/17 11:34:37;;;;;;;9.10;2.78;;;16.20;99.90;;;;;;5075220;28;20184;-88
2023/07/17 11:37:12;;;;;;;6.05;2.65;;;16.20;99.90;;;;;;5072012;28;20244;-88
2023/07/17 11:39:43;;;;;;;6.15;2.20;;;16.20;99.90;;;;;;5070567;28;20187;-87
2023/07/17 11:42:16;;;;;;;9.02;2.58;;;16.20;99.90;;;;;;5070592;28;20196;-87
2023/07/17 11:44:48;;;;;;;8.98;2.50;;;16.10;99.90;;;;;;5071421;28;20223;-86
2023/07/17 11:47:21;;;;;;;6.22;2.42;;;16.20;99.90;;;;;;5071435;28;20188;-86
2023/07/17 11:49:56;;;;;;;5.32;2.35;;;16.10;99.90;;;;;;5069449;28;20196;-87
2023/07/17 11:52:27;;;;;;;8.85;2.58;;;16.10;99.90;;;;;;5070279;28;20215;-87
2023/07/17 11:55:00;;;;;;;4.78;1.83;;;16.10;99.90;;;;;;5068141;28;20590;-86
2023/07/17 11:57:31;;;;;;;6.00;2.38;;;16.10;99.90;;;;;;5057980;28;20193;-88
2023/07/17 12:00:07;;;;;;;6.50;2.30;;;16.10;99.90;;;;;;5052268;28;20196;-84
2023/07/17 12:02:41;;;;;;;9.48;2.25;;;16.10;99.90;;;;;;5069169;28;20219;-88
2023/07/17 12:05:14;;;;;;;7.68;2.13;;;16.10;99.90;;;;;;5074556;28;20199;-86
2023/07/17 12:07:45;;;;;;;8.50;2.22;;;16.10;99.90;;;;;;5074631;28;20208;-88
2023/07/17 12:10:16;;;;;;;7.45;2.55;;;16.10;99.90;;;;;;5071590;28;20218;-86
2023/07/17 12:12:48;;;;;;;8.10;2.17;;;16.10;99.90;;;;;;5074203;28;20194;-86
2023/07/17 12:15:19;;;;;;;9.52;2.60;;;16.10;99.90;;;;;;5073412;28;20274;-87
2023/07/17 12:17:50;;;;;;;6.85;2.50;;;16.10;99.90;;;;;;5069740;28;20203;-87
2023/07/17 12:20:24;;;;;;;8.50;2.38;;;16.10;99.90;;;;;;5074858;28;20206;-87
2023/07/17 12:22:56;;;;;;;7.47;3.60;;;16.00;99.90;;;;;;5071574;28;20269;-86
2023/07/17 12:25:27;;;;;;;10.43;4.50;;;16.00;99.90;;;;;;5072734;28;20215;-87
2023/07/17 12:28:02;;;;;;;7.70;3.85;;;16.00;99.90;;;;;;5074730;28;20215;-88
2023/07/17 12:30:34;;;;;;;10.85;3.53;;;16.00;99.90;;;;;;5074487;28;20196;-86
2023/07/17 12:33:05;;;;;;;9.73;2.67;;;15.90;99.90;;;;;;5073075;28;20200;-86
2023/07/17 12:35:40;;;;;;;9.35;3.45;;;15.90;99.90;;;;;;5065137;28;20270;-87
2023/07/17 12:38:12;;;;;;;8.18;2.60;;;15.80;99.90;;;;;;5055693;28;20266;-87
2023/07/17 12:40:43;;;;;;;6.15;2.50;;;15.70;99.90;;;;;;5075876;28;20560;-87
2023/07/17 12:43:14;;;;;;;5.35;2.60;;;15.70;99.90;;;;;;5068699;28;20223;-86
2023/07/17 12:45:48;;;;;;;8.88;2.72;;;15.70;99.90;;;;;;5068787;28;20693;-87
2023/07/17 12:48:20;;;;;;;7.13;2.50;;;15.70;99.90;;;;;;5077338;28;20227;-89
2023/07/17 12:50:53;;;;;;;8.38;3.03;;;15.70;99.90;;;;;;5076644;28;20568;-86
2023/07/17 12:53:25;;;;;;;7.85;3.05;;;15.60;99.90;;;;;;5075991;28;20208;-88
2023/07/17 12:55:57;;;;;;;9.50;2.47;;;15.60;99.90;;;;;;5075052;28;20199;-89
2023/07/17 12:58:31;;;;;;;8.85;2.60;;;15.60;99.90;;;;;;5074282;28;20214;-89
2023/07/17 13:01:04;;;;;;;8.85;3.08;;;15.50;99.90;;;;;;5069587;28;20197;-87
2023/07/17 13:03:37;;;;;;;9.05;3.22;;;15.60;99.90;;;;;;5079059;28;20216;-86
2023/07/17 13:06:10;;;;;;;8.73;2.42;;;15.60;99.90;;;;;;5075839;28;20572;-87
2023/07/17 13:08:45;;;;;;;6.07;2.50;;;15.60;99.90;;;;;;5053362;28;20221;-87
2023/07/17 13:11:17;;;;;;;6.82;2.70;;;15.60;99.90;;;;;;5067696;28;20206;-88